Time;durP1;ratioP1;P1;durP2;ratioP2;P2;SDS_P1;SDS_P2;PMS_P1;PMS_P2;Temp;Humidity;BMP_temperature;BMP_pressure;BME280_temperature;BME280_humidity;BME280_pressure;Samples;Min_cycle;Max_cycle;Signal;HPM_P1;HPM_P2
2021/05/14 00:00:46;;;;;;;2.65;1.77;;;12.00;99.90;;;;;;5073734;28;20379;-55
2021/05/14 00:03:14;;;;;;;3.75;1.98;;;11.90;99.90;;;;;;5072986;28;20021;-53
2021/05/14 00:05:40;;;;;;;2.83;1.92;;;11.90;99.90;;;;;;5072905;28;20357;-51
2021/05/14 00:08:06;;;;;;;2.42;1.45;;;11.90;99.90;;;;;;5073513;28;20044;-49
2021/05/14 00:10:38;;;;;;;3.88;1.85;;;11.90;99.90;;;;;;5073479;28;20082;-51
2021/05/14 00:13:07;;;;;;;3.03;2.00;;;11.90;99.90;;;;;;5073817;28;20021;-53
2021/05/14 00:15:33;;;;;;;2.45;1.52;;;11.90;99.90;;;;;;5071930;28;20040;-52
2021/05/14 00:17:58;;;;;;;2.00;1.42;;;11.90;99.90;;;;;;5072829;28;20111;-53
2021/05/14 00:20:24;;;;;;;1.75;1.60;;;11.90;99.90;;;;;;5073405;28;20534;-51
2021/05/14 00:22:50;;;;;;;2.50;1.33;;;11.90;99.90;;;;;;5073345;28;20036;-53
2021/05/14 00:25:16;;;;;;;2.55;1.98;;;11.90;99.90;;;;;;5073368;28;20697;-55
2021/05/14 00:27:41;;;;;;;2.03;1.35;;;11.90;99.90;;;;;;5073306;28;20028;-54
2021/05/14 00:30:09;;;;;;;1.50;1.30;;;11.90;99.90;;;;;;5073081;28;20039;-50
2021/05/14 00:32:36;;;;;;;2.40;1.60;;;11.80;99.90;;;;;;5072940;28;20016;-51
2021/05/14 00:35:02;;;;;;;2.63;1.80;;;11.80;99.90;;;;;;5072262;28;20142;-52
2021/05/14 00:37:28;;;;;;;3.95;1.58;;;11.90;99.90;;;;;;5073236;28;20024;-52
2021/05/14 00:39:54;;;;;;;2.25;1.50;;;11.80;99.90;;;;;;5073221;28;20104;-53
2021/05/14 00:42:19;;;;;;;3.38;1.80;;;11.80;99.90;;;;;;5073087;28;20060;-55
2021/05/14 00:44:46;;;;;;;2.13;1.77;;;11.80;99.90;;;;;;5072665;28;20395;-50
2021/05/14 00:47:14;;;;;;;2.15;1.63;;;11.80;99.90;;;;;;5073019;28;20051;-53
2021/05/14 00:49:40;;;;;;;2.83;1.88;;;11.80;99.90;;;;;;5071727;28;20162;-51
2021/05/14 00:52:10;;;;;;;2.47;1.67;;;11.80;99.90;;;;;;5078694;28;20029;-50
2021/05/14 00:54:37;;;;;;;2.42;1.85;;;11.80;99.90;;;;;;5072463;28;20044;-53
2021/05/14 00:57:05;;;;;;;2.35;2.03;;;11.80;99.90;;;;;;5072767;28;20020;-49
2021/05/14 00:59:30;;;;;;;1.67;1.35;;;11.80;99.90;;;;;;5072617;28;20032;-53
2021/05/14 01:01:56;;;;;;;2.63;1.90;;;11.80;99.90;;;;;;5072358;28;20040;-52
2021/05/14 01:04:22;;;;;;;2.03;1.52;;;11.80;99.90;;;;;;5071619;28;20040;-50
2021/05/14 01:06:48;;;;;;;2.00;1.30;;;11.80;99.90;;;;;;5072415;28;20032;-49
2021/05/14 01:09:14;;;;;;;2.15;1.40;;;11.80;99.90;;;;;;5072362;28;20020;-55
2021/05/14 01:11:40;;;;;;;1.63;1.40;;;11.80;99.90;;;;;;5072287;28;20414;-51
2021/05/14 01:14:06;;;;;;;1.60;1.30;;;11.80;99.90;;;;;;5072632;28;20056;-52
2021/05/14 01:16:31;;;;;;;1.17;1.00;;;11.80;99.90;;;;;;5073138;28;20051;-53
2021/05/14 01:18:57;;;;;;;1.77;1.20;;;11.80;99.90;;;;;;5071490;28;20535;-52
2021/05/14 01:21:24;;;;;;;2.08;1.20;;;11.70;99.90;;;;;;5073162;28;20028;-54
2021/05/14 01:23:50;;;;;;;1.17;1.08;;;11.70;99.90;;;;;;5073005;28;20425;-54
2021/05/14 01:26:18;;;;;;;2.05;1.50;;;11.70;99.90;;;;;;5071870;28;20541;-55
2021/05/14 01:28:44;;;;;;;2.63;1.50;;;11.70;99.90;;;;;;5071770;28;20107;-56
2021/05/14 01:31:11;;;;;;;1.50;1.23;;;11.70;99.90;;;;;;5071758;28;20024;-52
2021/05/14 01:33:37;;;;;;;1.88;1.50;;;11.70;99.90;;;;;;5071943;28;20030;-51
2021/05/14 01:36:04;;;;;;;2.88;1.85;;;11.70;99.90;;;;;;5071698;28;20028;-50
2021/05/14 01:38:31;;;;;;;3.20;1.60;;;11.70;99.90;;;;;;5072929;28;20488;-53
2021/05/14 01:40:56;;;;;;;1.85;1.42;;;11.60;99.90;;;;;;5070336;28;20032;-53
2021/05/14 01:43:22;;;;;;;2.53;1.35;;;11.60;99.90;;;;;;5071859;28;20029;-49
2021/05/14 01:45:48;;;;;;;1.83;1.13;;;11.60;99.90;;;;;;5070296;28;20066;-51
2021/05/14 01:48:13;;;;;;;1.83;1.20;;;11.60;99.90;;;;;;5070978;28;20032;-51
2021/05/14 01:50:40;;;;;;;1.95;1.50;;;11.60;99.90;;;;;;5073206;28;20024;-49
2021/05/14 01:53:06;;;;;;;2.05;1.85;;;11.60;99.90;;;;;;5091996;28;20024;-52
2021/05/14 01:55:32;;;;;;;1.50;1.40;;;11.60;99.90;;;;;;5091721;28;20020;-52
2021/05/14 01:57:57;;;;;;;2.78;1.55;;;11.60;99.90;;;;;;5091861;28;20036;-54
2021/05/14 02:00:23;;;;;;;1.95;1.75;;;11.60;99.90;;;;;;5091990;28;20070;-54
2021/05/14 02:02:49;;;;;;;1.80;1.60;;;11.60;99.90;;;;;;5090727;28;20471;-51
2021/05/14 02:05:14;;;;;;;1.70;1.30;;;11.60;99.90;;;;;;5091882;28;20051;-54
2021/05/14 02:07:40;;;;;;;2.42;1.38;;;11.60;99.90;;;;;;5091666;28;20020;-51
2021/05/14 02:10:07;;;;;;;2.05;1.52;;;11.60;99.90;;;;;;5080072;28;20032;-52
2021/05/14 02:12:32;;;;;;;2.05;1.38;;;11.60;99.90;;;;;;5071456;28;20017;-53
2021/05/14 02:14:58;;;;;;;1.40;1.30;;;11.60;99.90;;;;;;5071532;28;20467;-54
2021/05/14 02:17:24;;;;;;;2.17;1.85;;;11.60;99.90;;;;;;5071458;28;20100;-54
2021/05/14 02:19:49;;;;;;;3.30;1.75;;;11.60;99.90;;;;;;5070520;28;20033;-51
2021/05/14 02:22:15;;;;;;;1.17;1.05;;;11.60;99.90;;;;;;5071460;28;20033;-53
2021/05/14 02:24:40;;;;;;;1.95;1.50;;;11.60;99.90;;;;;;5071411;28;20491;-48
2021/05/14 02:27:06;;;;;;;1.50;1.40;;;11.60;99.90;;;;;;5071237;28;20506;-51
2021/05/14 02:29:35;;;;;;;1.30;1.20;;;11.60;99.90;;;;;;5073443;28;20052;-51
2021/05/14 02:32:02;;;;;;;2.28;1.15;;;11.60;99.90;;;;;;5075367;28;20460;-51
2021/05/14 02:34:27;;;;;;;3.25;1.25;;;11.60;99.90;;;;;;5074558;28;20456;-49
2021/05/14 02:36:53;;;;;;;1.10;0.95;;;11.60;99.90;;;;;;5075247;28;20138;-51
2021/05/14 02:39:18;;;;;;;1.95;1.27;;;11.60;99.90;;;;;;5076286;28;20072;-52
2021/05/14 02:41:44;;;;;;;1.00;0.80;;;11.60;99.90;;;;;;5075914;28;20040;-51
2021/05/14 02:44:09;;;;;;;1.20;0.80;;;11.60;99.90;;;;;;5076310;28;20033;-52
2021/05/14 02:46:35;;;;;;;0.82;0.80;;;11.60;99.90;;;;;;5076068;28;20031;-51
2021/05/14 02:49:03;;;;;;;2.85;0.70;;;11.60;99.90;;;;;;5075062;28;20029;-51
2021/05/14 02:51:29;;;;;;;2.45;1.00;;;11.60;99.90;;;;;;5084475;28;20102;-48
2021/05/14 02:53:54;;;;;;;1.35;1.00;;;11.60;99.90;;;;;;5095992;28;20498;-54
2021/05/14 02:56:20;;;;;;;0.77;0.77;;;11.60;99.90;;;;;;5095931;28;20035;-56
2021/05/14 02:58:45;;;;;;;0.80;0.70;;;11.60;99.90;;;;;;5096238;28;20052;-53
2021/05/14 03:01:11;;;;;;;1.17;0.60;;;11.60;99.90;;;;;;5096087;28;20382;-53
2021/05/14 03:03:36;;;;;;;0.80;0.75;;;11.60;99.90;;;;;;5094167;28;20096;-53
2021/05/14 03:06:02;;;;;;;3.42;0.70;;;11.60;99.90;;;;;;5095903;28;20042;-49
2021/05/14 03:08:27;;;;;;;0.50;0.50;;;11.60;99.90;;;;;;5095978;28;20028;-53
2021/05/14 03:10:53;;;;;;;0.82;0.50;;;11.50;99.90;;;;;;5077382;28;20117;-50
2021/05/14 03:13:18;;;;;;;0.70;0.70;;;11.60;99.90;;;;;;5075706;28;20363;-52
2021/05/14 03:15:44;;;;;;;1.13;1.02;;;11.50;99.90;;;;;;5075632;28;20127;-51
2021/05/14 03:18:10;;;;;;;1.05;0.82;;;11.50;99.90;;;;;;5074648;28;20043;-54
2021/05/14 03:20:35;;;;;;;0.60;0.60;;;11.50;99.90;;;;;;5075595;28;20029;-51
2021/05/14 03:23:01;;;;;;;1.35;0.75;;;11.60;99.90;;;;;;5075323;28;20016;-50
2021/05/14 03:25:27;;;;;;;0.90;0.80;;;11.60;99.90;;;;;;5075432;28;20479;-49
2021/05/14 03:27:52;;;;;;;1.15;0.85;;;11.60;99.90;;;;;;5074047;28;20365;-50
2021/05/14 03:30:18;;;;;;;1.02;0.93;;;11.60;99.90;;;;;;5075410;28;20029;-52
2021/05/14 03:32:45;;;;;;;2.15;0.93;;;11.60;99.90;;;;;;5074197;28;20033;-54
2021/05/14 03:35:11;;;;;;;0.70;0.70;;;11.60;99.90;;;;;;5075412;28;20045;-50
2021/05/14 03:37:37;;;;;;;1.23;1.00;;;11.60;99.90;;;;;;5074929;28;20454;-51
2021/05/14 03:40:14;;;;;;;0.75;0.75;;;11.60;99.90;;;;;;5074445;28;20517;-53
2021/05/14 03:42:40;;;;;;;1.13;0.95;;;11.60;99.90;;;;;;5074812;28;20024;-55
2021/05/14 03:45:07;;;;;;;1.10;1.00;;;11.60;99.90;;;;;;5075010;28;20069;-56
2021/05/14 03:47:32;;;;;;;1.17;1.00;;;11.50;99.90;;;;;;5075048;28;20493;-50
2021/05/14 03:49:59;;;;;;;0.90;0.90;;;11.60;99.90;;;;;;5073993;28;20119;-51
2021/05/14 03:52:24;;;;;;;1.10;1.00;;;11.60;99.90;;;;;;5091114;28;20417;-52
2021/05/14 03:54:50;;;;;;;1.20;1.10;;;11.60;99.90;;;;;;5094929;28;20052;-54
2021/05/14 03:57:16;;;;;;;1.42;1.20;;;11.60;99.90;;;;;;5094791;28;20028;-54
2021/05/14 03:59:41;;;;;;;2.83;1.40;;;11.50;99.90;;;;;;5095247;28;20463;-50
2021/05/14 04:02:09;;;;;;;1.63;1.52;;;11.50;99.90;;;;;;5094869;28;20861;-48
2021/05/14 04:04:34;;;;;;;1.30;1.20;;;11.50;99.90;;;;;;5094109;28;20043;-53
2021/05/14 04:07:03;;;;;;;1.27;1.17;;;11.50;99.90;;;;;;5094702;28;20470;-52
2021/05/14 04:09:33;;;;;;;2.70;1.27;;;11.50;99.90;;;;;;5087101;28;20048;-52
2021/05/14 04:14:51;;;;;;;2.00;1.58;;;11.50;99.90;;;;;;5073622;28;20468;-52
2021/05/14 04:17:18;;;;;;;1.48;1.38;;;11.60;99.90;;;;;;5074434;28;20062;-52
2021/05/14 04:19:43;;;;;;;3.35;1.55;;;11.50;99.90;;;;;;5073506;28;20020;-54
2021/05/14 04:22:09;;;;;;;1.27;1.17;;;11.60;99.90;;;;;;5074221;28;20487;-49
2021/05/14 04:24:34;;;;;;;1.58;1.48;;;11.60;99.90;;;;;;5074583;28;20126;-54
2021/05/14 04:27:00;;;;;;;1.83;1.52;;;11.50;99.90;;;;;;5074240;28;20024;-51
2021/05/14 04:29:26;;;;;;;1.45;1.10;;;11.50;99.90;;;;;;5074176;28;20047;-49
2021/05/14 04:31:52;;;;;;;1.10;1.00;;;11.50;99.90;;;;;;5074202;28;20052;-49
2021/05/14 04:34:19;;;;;;;1.42;1.25;;;11.60;99.90;;;;;;5073124;28;20079;-54
2021/05/14 04:36:45;;;;;;;1.48;1.38;;;11.60;99.90;;;;;;5073909;28;20112;-51
2021/05/14 04:39:11;;;;;;;2.13;1.40;;;11.60;99.90;;;;;;5073996;28;20103;-51
2021/05/14 04:41:38;;;;;;;1.20;1.10;;;11.60;99.90;;;;;;5074105;28;20138;-50
2021/05/14 04:44:04;;;;;;;1.40;1.15;;;11.60;99.90;;;;;;5073833;28;20035;-50
2021/05/14 04:46:30;;;;;;;1.52;1.30;;;11.60;99.90;;;;;;5073998;28;20033;-52
2021/05/14 04:48:56;;;;;;;2.00;1.48;;;11.60;99.90;;;;;;5072749;28;20073;-51
2021/05/14 04:51:22;;;;;;;1.52;1.33;;;11.60;99.90;;;;;;5079818;28;20020;-50
2021/05/14 04:53:48;;;;;;;4.13;1.42;;;11.60;99.90;;;;;;5093865;28;20048;-52
2021/05/14 04:56:15;;;;;;;1.55;1.20;;;11.60;99.90;;;;;;5094072;28;20076;-53
2021/05/14 04:58:41;;;;;;;1.52;1.42;;;11.70;99.90;;;;;;5093760;28;20044;-51
2021/05/14 05:01:08;;;;;;;2.15;1.20;;;11.70;99.90;;;;;;5093830;28;20062;-52
2021/05/14 05:03:34;;;;;;;1.42;1.33;;;11.70;99.90;;;;;;5092758;28;20034;-51
2021/05/14 05:06:02;;;;;;;1.33;1.17;;;11.70;99.90;;;;;;5093816;28;20042;-51
2021/05/14 05:08:27;;;;;;;3.53;1.60;;;11.70;99.90;;;;;;5093743;28;20084;-51
2021/05/14 05:10:53;;;;;;;1.13;1.02;;;11.70;99.90;;;;;;5093715;28;20372;-56
2021/05/14 05:13:18;;;;;;;1.70;1.15;;;11.70;99.90;;;;;;5093522;28;20028;-51
2021/05/14 05:15:44;;;;;;;1.45;1.30;;;11.70;99.90;;;;;;5093560;28;20035;-52
2021/05/14 05:18:09;;;;;;;3.45;1.67;;;11.70;99.90;;;;;;5092451;28;20024;-50
2021/05/14 05:20:35;;;;;;;1.52;1.20;;;11.70;99.90;;;;;;5093665;28;20516;-49
2021/05/14 05:23:00;;;;;;;2.28;1.55;;;11.70;99.90;;;;;;5093290;28;20028;-51
2021/05/14 05:25:26;;;;;;;2.55;1.50;;;11.70;99.90;;;;;;5093424;28;20059;-54
2021/05/14 05:27:51;;;;;;;2.00;1.40;;;11.70;99.90;;;;;;5092176;28;20034;-53
2021/05/14 05:30:17;;;;;;;1.98;1.48;;;11.80;99.90;;;;;;5059895;28;20033;-50
2021/05/14 05:32:44;;;;;;;2.17;1.65;;;11.80;99.90;;;;;;5067383;28;20031;-48
2021/05/14 05:35:11;;;;;;;1.52;1.42;;;11.80;99.90;;;;;;5071201;28;20024;-51
2021/05/14 05:37:37;;;;;;;3.53;1.67;;;11.90;99.90;;;;;;5065137;28;20107;-51
2021/05/14 05:40:04;;;;;;;2.47;1.65;;;11.90;99.90;;;;;;5071082;28;20107;-50
2021/05/14 05:42:30;;;;;;;1.35;1.17;;;11.90;99.90;;;;;;5071044;28;20036;-54
2021/05/14 05:44:55;;;;;;;1.30;1.20;;;11.90;99.90;;;;;;5071075;28;20032;-54
2021/05/14 05:47:20;;;;;;;2.15;1.30;;;11.90;99.90;;;;;;5070648;28;20032;-51
2021/05/14 05:49:46;;;;;;;2.78;1.40;;;11.90;99.90;;;;;;5070174;28;20116;-52
2021/05/14 05:52:12;;;;;;;2.20;1.73;;;11.90;99.90;;;;;;5080834;28;20103;-50
2021/05/14 05:54:38;;;;;;;1.35;1.25;;;11.90;99.90;;;;;;5060517;28;20379;-52
2021/05/14 05:57:04;;;;;;;2.65;1.30;;;11.90;99.90;;;;;;5071491;28;20028;-51
2021/05/14 05:59:29;;;;;;;3.47;1.63;;;11.90;99.90;;;;;;5072510;28;20020;-52
2021/05/14 06:01:55;;;;;;;1.92;1.20;;;11.90;99.90;;;;;;5072387;28;20496;-54
2021/05/14 06:04:20;;;;;;;3.42;1.25;;;11.90;99.90;;;;;;5070666;28;20024;-55
2021/05/14 06:06:46;;;;;;;1.63;1.10;;;11.90;99.90;;;;;;5072629;28;20086;-52
2021/05/14 06:09:11;;;;;;;1.35;1.25;;;12.00;99.90;;;;;;5072270;28;20021;-52
2021/05/14 06:11:37;;;;;;;1.30;1.00;;;12.00;99.90;;;;;;5072562;28;20411;-54
2021/05/14 06:14:03;;;;;;;0.80;0.80;;;12.00;99.90;;;;;;5072415;28;20024;-49
2021/05/14 06:16:28;;;;;;;1.10;1.00;;;11.90;99.90;;;;;;5072285;28;20052;-53
2021/05/14 06:19:04;;;;;;;1.35;1.23;;;11.90;99.90;;;;;;5071663;28;20017;-48
2021/05/14 06:21:30;;;;;;;1.77;1.10;;;11.90;99.90;;;;;;5072600;28;20123;-53
2021/05/14 06:23:56;;;;;;;1.00;0.93;;;11.90;99.90;;;;;;5072341;28;20463;-52
2021/05/14 06:26:21;;;;;;;0.80;0.80;;;11.90;99.90;;;;;;5072384;28;20099;-51
2021/05/14 06:28:47;;;;;;;1.00;1.00;;;11.90;99.90;;;;;;5072222;28;20082;-49
2021/05/14 06:31:12;;;;;;;1.33;1.02;;;12.00;99.90;;;;;;5072178;28;20028;-54
2021/05/14 06:33:38;;;;;;;0.68;0.68;;;12.00;99.90;;;;;;5071288;28;20031;-53
2021/05/14 06:36:04;;;;;;;0.50;0.50;;;12.00;99.90;;;;;;5072150;28;20029;-54
2021/05/14 06:38:30;;;;;;;2.33;0.65;;;12.00;99.90;;;;;;5071965;28;20036;-52
2021/05/14 06:40:56;;;;;;;1.27;0.70;;;12.00;99.90;;;;;;5072435;28;20071;-54
2021/05/14 06:43:21;;;;;;;0.60;0.60;;;12.00;99.90;;;;;;5072053;28;20029;-54
2021/05/14 06:45:47;;;;;;;0.40;0.40;;;12.10;99.90;;;;;;5072027;28;20151;-54
2021/05/14 06:48:15;;;;;;;1.50;0.80;;;12.10;99.90;;;;;;5071080;28;20052;-51
2021/05/14 06:50:42;;;;;;;0.70;0.70;;;12.20;99.90;;;;;;5074071;28;20020;-54
2021/05/14 06:53:08;;;;;;;1.00;0.52;;;12.20;99.90;;;;;;5092024;28;20084;-51
2021/05/14 06:55:34;;;;;;;0.90;0.85;;;12.20;99.90;;;;;;5092423;28;20029;-55
2021/05/14 06:58:03;;;;;;;1.42;0.82;;;12.30;99.90;;;;;;5092209;28;20032;-51
2021/05/14 07:00:28;;;;;;;0.93;0.55;;;12.40;99.90;;;;;;5092295;28;20095;-51
2021/05/14 07:02:55;;;;;;;0.60;0.60;;;12.40;99.90;;;;;;5091114;28;20229;-50
2021/05/14 07:05:21;;;;;;;1.05;0.60;;;12.50;99.90;;;;;;5092198;28;20093;-51
2021/05/14 07:07:46;;;;;;;0.75;0.73;;;12.60;99.90;;;;;;5090901;28;20089;-54
2021/05/14 07:10:13;;;;;;;0.93;0.90;;;12.60;99.90;;;;;;5079530;28;20103;-51
2021/05/14 07:12:39;;;;;;;1.63;0.80;;;12.60;99.90;;;;;;5071872;28;20437;-52
2021/05/14 07:15:07;;;;;;;2.17;0.70;;;12.60;99.90;;;;;;5073075;28;20040;-52
2021/05/14 07:17:33;;;;;;;0.60;0.60;;;12.60;99.90;;;;;;5074850;28;20016;-56
2021/05/14 07:19:59;;;;;;;0.60;0.60;;;12.70;99.90;;;;;;5075354;28;20031;-54
2021/05/14 07:22:24;;;;;;;1.02;0.93;;;12.70;99.90;;;;;;5075514;28;20379;-51
2021/05/14 07:24:50;;;;;;;1.17;0.80;;;12.80;99.90;;;;;;5075487;28;20032;-51
2021/05/14 07:27:16;;;;;;;1.60;0.88;;;12.80;99.90;;;;;;5075469;28;20051;-52
2021/05/14 07:29:42;;;;;;;0.80;0.80;;;12.80;99.90;;;;;;5075272;28;20407;-53
2021/05/14 07:32:08;;;;;;;1.73;1.00;;;12.90;99.90;;;;;;5075308;28;20017;-50
2021/05/14 07:34:34;;;;;;;0.88;0.77;;;12.90;99.90;;;;;;5074336;28;20490;-55
2021/05/14 07:36:59;;;;;;;0.60;0.60;;;12.90;99.90;;;;;;5075066;28;20029;-53
2021/05/14 07:39:25;;;;;;;0.82;0.70;;;12.80;99.90;;;;;;5075171;28;20036;-55
2021/05/14 07:41:50;;;;;;;0.90;0.80;;;12.80;99.90;;;;;;5075279;28;20036;-53
2021/05/14 07:44:16;;;;;;;2.28;0.70;;;12.80;99.90;;;;;;5074876;28;20033;-56
2021/05/14 07:46:42;;;;;;;0.80;0.70;;;12.80;99.90;;;;;;5075304;28;20631;-55
2021/05/14 07:49:08;;;;;;;1.08;0.98;;;12.90;99.90;;;;;;5073614;28;20127;-55
2021/05/14 07:51:33;;;;;;;0.80;0.73;;;12.90;99.90;;;;;;5084218;28;20074;-52
2021/05/14 07:53:58;;;;;;;0.82;0.80;;;12.90;99.90;;;;;;5095005;28;20063;-54
2021/05/14 07:56:24;;;;;;;1.75;0.90;;;12.90;99.90;;;;;;5095083;28;20121;-54
2021/05/14 07:58:49;;;;;;;1.02;0.93;;;12.90;99.90;;;;;;5095018;28;20032;-53
2021/05/14 08:01:15;;;;;;;2.20;1.25;;;12.90;99.90;;;;;;5095091;28;20422;-52
2021/05/14 08:03:41;;;;;;;1.50;1.10;;;13.00;99.90;;;;;;5093944;28;20028;-54
2021/05/14 08:06:06;;;;;;;2.55;1.10;;;13.00;99.90;;;;;;5095026;28;20140;-51
2021/05/14 08:08:36;;;;;;;1.65;1.17;;;13.00;99.90;;;;;;5094653;28;20071;-51
2021/05/14 08:11:02;;;;;;;1.50;1.02;;;13.00;99.90;;;;;;5075493;28;20142;-55
2021/05/14 08:13:27;;;;;;;0.85;0.85;;;13.00;99.90;;;;;;5074357;28;20042;-54
2021/05/14 08:15:53;;;;;;;3.70;1.27;;;13.10;99.90;;;;;;5074605;28;20115;-55
2021/05/14 08:18:19;;;;;;;1.35;1.15;;;13.10;99.90;;;;;;5073367;28;20325;-51
2021/05/14 08:20:46;;;;;;;1.38;1.10;;;13.10;99.90;;;;;;5074658;28;20478;-53
2021/05/14 08:23:12;;;;;;;1.30;1.20;;;13.10;99.90;;;;;;5074295;28;20496;-55
2021/05/14 08:25:38;;;;;;;1.40;1.30;;;13.00;99.90;;;;;;5074472;28;20027;-55
2021/05/14 08:28:04;;;;;;;1.73;1.63;;;13.00;99.90;;;;;;5073687;28;20467;-55
2021/05/14 08:30:30;;;;;;;1.50;1.40;;;12.90;99.90;;;;;;5074069;28;20077;-55
2021/05/14 08:32:55;;;;;;;3.17;1.73;;;12.80;99.90;;;;;;5073215;28;20024;-51
2021/05/14 08:35:21;;;;;;;2.83;1.50;;;12.80;99.90;;;;;;5073901;28;20107;-54
2021/05/14 08:37:48;;;;;;;1.83;1.60;;;12.70;99.90;;;;;;5072557;28;20040;-51
2021/05/14 08:40:14;;;;;;;1.83;1.40;;;12.70;99.90;;;;;;5073942;28;20044;-56
2021/05/14 08:42:41;;;;;;;2.80;1.88;;;12.70;99.90;;;;;;5073928;28;20106;-50
2021/05/14 08:45:09;;;;;;;2.15;1.95;;;12.70;99.90;;;;;;5073849;28;20032;-55
2021/05/14 08:47:36;;;;;;;1.80;1.70;;;12.60;99.90;;;;;;5072941;28;20028;-53
2021/05/14 08:50:04;;;;;;;1.80;1.70;;;12.70;99.90;;;;;;5073722;28;20036;-55
2021/05/14 08:52:30;;;;;;;1.60;1.50;;;12.60;99.90;;;;;;5089447;28;20027;-54
2021/05/14 08:55:00;;;;;;;2.75;1.50;;;12.60;99.90;;;;;;5093735;28;20119;-54
2021/05/14 08:57:25;;;;;;;3.05;1.33;;;12.70;99.90;;;;;;5094005;28;20020;-52
2021/05/14 08:59:52;;;;;;;1.70;1.60;;;12.60;99.90;;;;;;5093871;28;20043;-54
2021/05/14 09:02:17;;;;;;;1.92;1.20;;;12.70;99.90;;;;;;5093874;28;20020;-51
2021/05/14 09:04:43;;;;;;;1.05;0.98;;;12.70;99.90;;;;;;5092738;28;20524;-51
2021/05/14 09:07:16;;;;;;;1.15;1.05;;;12.70;99.90;;;;;;5093960;28;20502;-54
2021/05/14 09:10:03;;;;;;;2.95;1.20;;;12.70;99.90;;;;;;5083889;28;20025;-52
2021/05/14 09:12:33;;;;;;;1.55;1.30;;;12.80;99.90;;;;;;5073423;28;20028;-53
2021/05/14 09:14:59;;;;;;;1.52;1.30;;;12.80;99.90;;;;;;5073407;28;20021;-55
2021/05/14 09:17:26;;;;;;;2.25;0.93;;;12.70;99.90;;;;;;5073284;28;20357;-52
2021/05/14 09:19:53;;;;;;;2.45;1.00;;;12.80;99.90;;;;;;5072481;28;20063;-53
2021/05/14 09:22:24;;;;;;;1.48;1.17;;;12.80;99.90;;;;;;5073184;28;20515;-50
2021/05/14 09:25:02;;;;;;;1.15;1.02;;;12.80;99.90;;;;;;5073176;28;20056;-53
2021/05/14 09:27:38;;;;;;;1.58;0.93;;;12.80;99.90;;;;;;5073226;28;20050;-51
2021/05/14 09:30:08;;;;;;;1.02;0.80;;;12.90;99.90;;;;;;5073111;28;20027;-53
2021/05/14 09:32:35;;;;;;;1.65;1.00;;;13.00;99.90;;;;;;5072098;28;20029;-51
2021/05/14 09:35:03;;;;;;;0.93;0.70;;;13.00;99.90;;;;;;5072763;28;20062;-53
2021/05/14 09:37:29;;;;;;;0.70;0.65;;;13.00;99.90;;;;;;5072751;28;20020;-50
2021/05/14 09:40:23;;;;;;;1.30;0.73;;;13.00;99.90;;;;;;5072154;28;20028;-54
2021/05/14 09:42:57;;;;;;;0.95;0.90;;;13.10;99.90;;;;;;5072988;28;20056;-53
2021/05/14 09:45:25;;;;;;;0.80;0.80;;;13.10;99.90;;;;;;5072841;28;20048;-52
2021/05/14 09:47:59;;;;;;;0.95;0.85;;;13.20;99.90;;;;;;5071999;28;20111;-53
2021/05/14 09:50:33;;;;;;;0.80;0.80;;;13.20;99.90;;;;;;5072392;28;20048;-51
2021/05/14 09:53:05;;;;;;;1.90;0.70;;;13.30;99.90;;;;;;5052703;28;20021;-50
2021/05/14 09:55:32;;;;;;;0.50;0.50;;;13.40;99.90;;;;;;5052397;28;20078;-51
2021/05/14 09:58:02;;;;;;;0.98;0.77;;;13.40;99.90;;;;;;5052776;28;20021;-51
2021/05/14 10:00:29;;;;;;;1.63;0.80;;;13.40;99.90;;;;;;5052594;28;20051;-52
2021/05/14 10:02:58;;;;;;;0.60;0.60;;;13.50;99.90;;;;;;5051731;28;20028;-53
2021/05/14 10:05:23;;;;;;;2.92;0.75;;;13.40;99.90;;;;;;5052432;28;20403;-51
2021/05/14 10:07:49;;;;;;;1.40;0.73;;;13.50;99.90;;;;;;5052599;28;20029;-52
2021/05/14 10:10:15;;;;;;;0.60;0.52;;;13.50;99.90;;;;;;5064773;28;20344;-51
2021/05/14 10:12:40;;;;;;;4.30;0.68;;;13.40;99.90;;;;;;5071168;28;20028;-53
2021/05/14 10:15:08;;;;;;;3.45;0.60;;;13.40;99.90;;;;;;5072291;28;20043;-52
2021/05/14 10:17:35;;;;;;;1.80;0.60;;;13.30;99.90;;;;;;5071574;28;20517;-51
2021/05/14 10:20:04;;;;;;;0.60;0.60;;;13.30;99.90;;;;;;5072470;28;20066;-50
2021/05/14 10:22:30;;;;;;;3.65;0.52;;;13.30;99.90;;;;;;5072279;28;20099;-51
2021/05/14 10:24:59;;;;;;;0.43;0.43;;;13.40;99.90;;;;;;5072458;28;20415;-55
2021/05/14 10:27:45;;;;;;;1.95;0.70;;;13.60;99.90;;;;;;5072585;28;20059;-53
2021/05/14 10:30:13;;;;;;;0.82;0.60;;;13.80;99.90;;;;;;5071948;28;20047;-49
2021/05/14 10:32:45;;;;;;;0.70;0.70;;;13.90;99.90;;;;;;5071427;28;20055;-55
2021/05/14 10:35:11;;;;;;;5.05;0.60;;;13.80;99.90;;;;;;5068038;28;20025;-52
2021/05/14 10:37:52;;;;;;;0.57;0.57;;;13.70;99.90;;;;;;5072094;28;20509;-51
2021/05/14 10:40:33;;;;;;;1.00;0.70;;;13.60;99.90;;;;;;5072141;28;20035;-49
2021/05/14 10:43:04;;;;;;;25.40;2.45;;;13.60;99.90;;;;;;5072396;28;20104;-49
2021/05/14 10:45:39;;;;;;;12.35;1.40;;;13.50;99.90;;;;;;5071931;28;20033;-55
2021/05/14 10:48:19;;;;;;;4.57;1.35;;;13.60;99.90;;;;;;5071502;28;20086;-49
2021/05/14 10:50:51;;;;;;;1.08;0.60;;;13.60;99.90;;;;;;5076551;28;20035;-53
2021/05/14 10:53:17;;;;;;;0.80;0.80;;;13.50;99.90;;;;;;5096323;28;20383;-51
2021/05/14 10:55:47;;;;;;;2.42;0.93;;;13.60;99.90;;;;;;5096303;28;20021;-50
2021/05/14 10:58:38;;;;;;;1.00;0.70;;;13.70;99.90;;;;;;5096209;28;20070;-52
2021/05/14 11:01:05;;;;;;;1.80;0.90;;;13.70;99.90;;;;;;5096169;28;20027;-52
2021/05/14 11:03:32;;;;;;;1.17;0.82;;;13.70;99.90;;;;;;5095273;28;20477;-55
2021/05/14 11:06:18;;;;;;;1.85;0.80;;;13.80;99.90;;;;;;5096094;28;20058;-52
2021/05/14 11:09:01;;;;;;;1.10;0.70;;;13.80;99.90;;;;;;5095769;28;20028;-54
2021/05/14 11:11:28;;;;;;;2.38;1.23;;;13.80;99.90;;;;;;5075682;28;20103;-50
2021/05/14 11:13:55;;;;;;;1.73;0.90;;;14.00;99.90;;;;;;5075750;28;20530;-53
2021/05/14 11:16:43;;;;;;;2.58;1.35;;;14.10;99.90;;;;;;5075736;28;20032;-52
2021/05/14 11:19:29;;;;;;;0.80;0.70;;;14.20;99.90;;;;;;5074833;28;20028;-50
2021/05/14 11:21:59;;;;;;;1.83;1.15;;;14.20;99.90;;;;;;5075479;28;20103;-53
2021/05/14 11:24:36;;;;;;;2.58;0.82;;;14.20;99.90;;;;;;5075494;28;20024;-53
2021/05/14 11:27:30;;;;;;;3.47;1.20;;;14.20;99.90;;;;;;5075416;28;20482;-54
2021/05/14 11:30:00;;;;;;;3.80;1.00;;;14.20;99.90;;;;;;5067347;28;20502;-54
2021/05/14 11:32:28;;;;;;;1.55;1.05;;;14.20;99.90;;;;;;5074780;28;20017;-55
2021/05/14 11:34:55;;;;;;;1.73;1.00;;;14.30;99.90;;;;;;5072873;28;20033;-54
2021/05/14 11:37:22;;;;;;;1.85;1.00;;;14.20;99.90;;;;;;5074574;28;20027;-52
2021/05/14 11:39:48;;;;;;;1.58;1.30;;;14.20;99.90;;;;;;5074825;28;20052;-55
2021/05/14 11:42:22;;;;;;;1.95;1.00;;;14.20;99.90;;;;;;5075222;28;20098;-52
2021/05/14 11:45:02;;;;;;;1.55;1.00;;;14.30;99.90;;;;;;5074919;28;20033;-53
2021/05/14 11:47:29;;;;;;;1.50;1.00;;;14.30;99.90;;;;;;5074342;28;20120;-57
2021/05/14 11:49:55;;;;;;;1.55;1.10;;;14.50;99.90;;;;;;5074928;28;20542;-53
2021/05/14 11:52:34;;;;;;;3.15;1.13;;;14.90;99.90;;;;;;5090446;28;20020;-55
2021/05/14 11:55:14;;;;;;;3.25;1.17;;;15.20;99.90;;;;;;5094988;28;20113;-57
2021/05/14 11:57:52;;;;;;;0.85;0.77;;;15.50;99.90;;;;;;5095247;28;20016;-57
2021/05/14 12:00:27;;;;;;;1.35;0.70;;;15.90;97.80;;;;;;5095147;28;20483;-54
2021/05/14 12:02:53;;;;;;;1.55;1.00;;;16.00;97.30;;;;;;5092959;28;20036;-54
2021/05/14 12:05:21;;;;;;;2.05;0.93;;;15.90;96.40;;;;;;5095083;28;20024;-57
2021/05/14 12:07:48;;;;;;;1.38;0.77;;;15.80;96.60;;;;;;5094879;28;20028;-55
2021/05/14 12:10:16;;;;;;;1.13;0.80;;;15.80;94.50;;;;;;5082209;28;20028;-55
2021/05/14 12:12:42;;;;;;;2.40;1.23;;;16.00;95.00;;;;;;5070296;28;20035;-53
2021/05/14 12:15:15;;;;;;;1.20;0.77;;;16.30;92.60;;;;;;5062300;28;20032;-56
2021/05/14 12:17:41;;;;;;;2.28;1.30;;;16.40;92.00;;;;;;5071854;28;20104;-57
2021/05/14 12:20:22;;;;;;;4.03;0.80;;;16.50;91.90;;;;;;5059312;28;20028;-55
2021/05/14 12:22:49;;;;;;;0.85;0.75;;;16.60;91.30;;;;;;5068229;28;20027;-57
2021/05/14 12:25:15;;;;;;;1.98;0.90;;;16.80;91.20;;;;;;5072637;28;20028;-53
2021/05/14 12:27:42;;;;;;;2.25;1.23;;;16.80;90.60;;;;;;5072509;28;20032;-57
2021/05/14 12:30:10;;;;;;;1.75;1.00;;;16.90;90.50;;;;;;5072278;28;20225;-57
2021/05/14 12:32:37;;;;;;;2.15;1.05;;;16.90;90.00;;;;;;5071672;28;20107;-52
2021/05/14 12:35:07;;;;;;;1.45;1.00;;;16.90;88.50;;;;;;5072550;28;20179;-57
2021/05/14 12:37:33;;;;;;;0.98;0.90;;;16.80;88.00;;;;;;5072207;28;20020;-52
2021/05/14 12:39:59;;;;;;;4.10;1.10;;;16.90;88.10;;;;;;5072216;28;20107;-56
2021/05/14 12:42:30;;;;;;;5.28;1.30;;;16.80;86.80;;;;;;5072061;28;20103;-52
2021/05/14 12:44:59;;;;;;;2.80;0.80;;;16.70;86.60;;;;;;5072148;28;20020;-53
2021/05/14 12:47:27;;;;;;;1.90;1.10;;;16.50;87.20;;;;;;5071519;28;20466;-54
2021/05/14 12:49:58;;;;;;;2.40;1.10;;;16.40;86.00;;;;;;5072013;28;20113;-55
2021/05/14 12:52:31;;;;;;;4.30;1.13;;;16.30;85.70;;;;;;5084634;28;20025;-53